createdAt,value
2019-05-11T00:01:44.763Z,81.06
2019-05-11T00:04:10.635Z,80.14
2019-05-11T00:06:36.505Z,80.21
2019-05-11T00:09:04.959Z,79.88
2019-05-11T00:11:30.817Z,79.59
2019-05-11T00:13:56.699Z,79.34
2019-05-11T00:16:23.394Z,80.19
2019-05-11T00:18:49.262Z,80.48
2019-05-11T00:21:15.115Z,79.86
2019-05-11T00:23:40.979Z,79.31
2019-05-11T00:26:06.846Z,79.53
2019-05-11T00:28:32.689Z,79.76
2019-05-11T00:30:58.549Z,80.22
2019-05-11T00:33:24.416Z,80.35
2019-05-11T00:35:50.304Z,80.16
2019-05-11T00:38:16.158Z,80.86
2019-05-11T00:40:42.009Z,80.62
2019-05-11T00:43:07.856Z,80.53
2019-05-11T00:45:33.718Z,79.50
2019-05-11T00:47:59.569Z,79.76
2019-05-11T00:50:38.167Z,80.78
2019-05-11T00:52:53.202Z,80.47
2019-05-11T00:55:19.065Z,80.20
2019-05-11T00:57:44.913Z,79.68
2019-05-11T01:00:11.889Z,80.09
2019-05-11T01:02:37.978Z,80.88
2019-05-11T01:05:04.951Z,79.76
2019-05-11T01:07:30.842Z,81.44
2019-05-11T01:09:56.661Z,82.92
2019-05-11T01:12:22.523Z,81.88
2019-05-11T01:14:48.458Z,80.80
2019-05-11T01:17:14.378Z,80.39
2019-05-11T01:19:40.223Z,81.42
2019-05-11T01:22:06.195Z,81.45
2019-05-11T01:24:32.351Z,81.77
2019-05-11T01:26:58.195Z,81.53
2019-05-11T01:29:24.061Z,81.29
2019-05-11T01:31:49.918Z,81.03
2019-05-11T01:34:15.787Z,81.19
2019-05-11T01:36:41.662Z,81.19
2019-05-11T01:39:07.508Z,80.85
2019-05-11T01:41:33.372Z,80.70
2019-05-11T01:43:59.232Z,81.04
2019-05-11T01:46:25.085Z,80.67
2019-05-11T01:48:50.977Z,81.15
2019-05-11T01:51:16.811Z,80.73
2019-05-11T01:53:42.659Z,80.72
2019-05-11T01:56:08.524Z,81.29
2019-05-11T01:58:34.422Z,81.39
2019-05-11T02:01:00.281Z,80.78
2019-05-11T02:03:26.148Z,81.29
2019-05-11T02:05:52.007Z,81.06
2019-05-11T02:08:17.870Z,81.13
2019-05-11T02:10:43.713Z,81.18
2019-05-11T02:13:09.578Z,81.67
2019-05-11T02:15:35.425Z,81.76
2019-05-11T02:18:01.321Z,81.59
2019-05-11T02:20:27.167Z,81.55
2019-05-11T02:22:53.035Z,81.66
2019-05-11T02:25:18.878Z,81.99
2019-05-11T02:27:44.749Z,81.91
2019-05-11T02:30:11.407Z,81.14
2019-05-11T02:32:37.294Z,82.05
2019-05-11T02:35:06.151Z,80.76
2019-05-11T02:37:31.998Z,81.41
2019-05-11T02:39:57.849Z,81.70
2019-05-11T02:42:23.723Z,81.66
2019-05-11T02:44:49.608Z,81.28
2019-05-11T02:47:15.445Z,81.48
2019-05-11T02:49:41.289Z,81.40
2019-05-11T02:52:08.070Z,80.78
2019-05-11T02:54:34.126Z,80.93
2019-05-11T02:56:59.990Z,80.65
2019-05-11T02:59:29.653Z,81.00
2019-05-11T03:01:53.625Z,80.40
2019-05-11T03:04:19.472Z,80.46
2019-05-11T03:06:45.334Z,80.89
2019-05-11T03:09:11.217Z,81.01
2019-05-11T03:11:54.001Z,80.46
2019-05-11T03:14:04.837Z,80.34
2019-05-11T03:16:30.700Z,80.11
2019-05-11T03:18:56.564Z,80.33
2019-05-11T03:21:22.410Z,80.17
2019-05-11T03:23:49.112Z,80.12
2019-05-11T03:26:14.963Z,80.09
2019-05-11T03:28:40.842Z,80.10
2019-05-11T03:31:06.707Z,80.01
2019-05-11T03:33:32.549Z,80.44
2019-05-11T03:35:58.413Z,79.79
2019-05-11T03:38:24.262Z,80.10
2019-05-11T03:40:50.137Z,81.01
2019-05-11T03:43:16.003Z,81.01
2019-05-11T03:45:41.842Z,80.41
2019-05-11T03:48:07.685Z,80.56
2019-05-11T03:50:33.552Z,80.46
2019-05-11T03:52:59.405Z,80.25
2019-05-11T03:55:25.301Z,80.37
2019-05-11T03:57:51.114Z,80.83
2019-05-11T04:00:17.177Z,80.81
2019-05-11T04:02:43.026Z,80.66
2019-05-11T04:05:09.217Z,81.02
2019-05-11T04:07:35.070Z,80.99
2019-05-11T04:10:00.952Z,80.80
2019-05-11T04:12:34.708Z,81.10
2019-05-11T04:14:54.611Z,80.83
2019-05-11T04:17:21.866Z,80.80
2019-05-11T04:19:48.536Z,80.99
2019-05-11T04:22:14.388Z,80.85
2019-05-11T04:24:40.261Z,81.17
2019-05-11T04:27:06.137Z,81.20
2019-05-11T04:29:31.985Z,81.00
2019-05-11T04:31:57.864Z,81.21
2019-05-11T04:34:23.744Z,81.07
2019-05-11T04:36:49.591Z,81.62
2019-05-11T04:39:15.449Z,81.41
2019-05-11T04:41:41.297Z,80.52
2019-05-11T04:44:07.149Z,80.96
2019-05-11T04:46:33.033Z,80.12
2019-05-11T04:48:58.881Z,80.02
2019-05-11T04:51:24.725Z,79.82
2019-05-11T04:53:50.611Z,80.09
2019-05-11T04:56:16.466Z,79.93
2019-05-11T04:58:42.331Z,79.93
2019-05-11T05:01:08.214Z,79.29
2019-05-11T05:03:40.728Z,78.72
2019-05-11T05:06:21.269Z,78.40
2019-05-11T05:08:29.628Z,78.47
2019-05-11T05:10:58.638Z,77.92
2019-05-11T05:13:29.228Z,77.21
2019-05-11T05:15:51.017Z,76.13
2019-05-11T05:18:16.873Z,76.38
2019-05-11T05:20:43.986Z,76.34
2019-05-11T05:23:10.091Z,74.76
2019-05-11T05:25:35.959Z,75.13
2019-05-11T05:28:02.670Z,75.17
2019-05-11T05:30:28.514Z,75.87
2019-05-11T05:32:54.395Z,75.80
2019-05-11T05:35:20.268Z,75.61
2019-05-11T05:37:46.127Z,76.27
2019-05-11T05:40:12.181Z,74.96
2019-05-11T05:42:38.153Z,75.03
2019-05-11T05:45:05.913Z,75.00
2019-05-11T05:47:31.781Z,75.57
2019-05-11T05:49:57.644Z,74.65
2019-05-11T05:52:23.507Z,74.93
2019-05-11T05:54:49.360Z,74.67
2019-05-11T05:57:15.232Z,74.71
2019-05-11T05:59:41.102Z,73.57
2019-05-11T06:02:06.957Z,73.35
2019-05-11T06:04:32.822Z,72.62
2019-05-11T06:06:58.697Z,72.99
2019-05-11T06:09:24.551Z,72.95
2019-05-11T06:11:50.398Z,72.71
2019-05-11T06:14:16.276Z,73.21
2019-05-11T06:16:42.160Z,73.57
2019-05-11T06:19:08.028Z,72.95
2019-05-11T06:21:33.869Z,72.86
2019-05-11T06:24:06.150Z,72.70
2019-05-11T06:26:27.552Z,72.45
2019-05-11T06:28:53.444Z,72.57
2019-05-11T06:31:19.294Z,72.54
2019-05-11T06:33:45.208Z,72.57
2019-05-11T06:36:11.053Z,72.79
2019-05-11T06:38:36.920Z,71.72
2019-05-11T06:41:02.773Z,71.21
2019-05-11T06:43:28.693Z,70.63
2019-05-11T06:45:54.537Z,70.19
2019-05-11T06:48:20.456Z,69.03
2019-05-11T06:50:46.372Z,68.64
2019-05-11T06:53:12.243Z,68.46
2019-05-11T06:55:38.095Z,68.14
2019-05-11T06:58:04.130Z,67.10
2019-05-11T07:00:30.049Z,66.22
2019-05-11T07:02:55.882Z,65.96
2019-05-11T07:05:21.750Z,64.80
2019-05-11T07:07:48.108Z,64.22
2019-05-11T07:10:14.377Z,63.51
2019-05-11T07:12:40.246Z,63.28
2019-05-11T07:15:06.807Z,62.33
2019-05-11T07:17:32.669Z,61.55
2019-05-11T07:19:58.543Z,61.36
2019-05-11T07:22:24.705Z,60.50
2019-05-11T07:24:50.555Z,59.86
2019-05-11T07:27:16.419Z,59.57
2019-05-11T07:29:42.306Z,59.25
2019-05-11T07:32:20.016Z,59.53
2019-05-11T07:34:38.222Z,58.56
2019-05-11T07:37:03.689Z,57.58
2019-05-11T07:39:29.542Z,57.21
2019-05-11T07:41:55.411Z,57.15
2019-05-11T07:44:35.037Z,56.62
2019-05-11T07:46:49.033Z,56.62
2019-05-11T07:49:14.889Z,56.09
2019-05-11T07:51:40.736Z,56.06
2019-05-11T07:54:08.413Z,55.46
2019-05-11T07:56:34.362Z,56.08
2019-05-11T07:59:00.215Z,56.85
2019-05-11T08:01:28.218Z,55.75
2019-05-11T08:03:53.834Z,54.80
2019-05-11T08:06:19.700Z,54.85
2019-05-11T08:08:45.552Z,54.94
2019-05-11T08:11:11.409Z,55.04
2019-05-11T08:13:38.889Z,54.34
2019-05-11T08:16:04.969Z,54.27
2019-05-11T08:18:30.818Z,53.00
2019-05-11T08:20:58.289Z,54.09
2019-05-11T08:23:24.336Z,54.05
2019-05-11T08:25:50.220Z,53.70
2019-05-11T08:28:18.189Z,54.08
2019-05-11T08:30:43.848Z,52.75
2019-05-11T08:33:09.720Z,53.65
2019-05-11T08:35:35.570Z,53.53
2019-05-11T08:38:01.426Z,54.00
2019-05-11T08:40:28.873Z,53.44
2019-05-11T08:42:54.941Z,53.76
2019-05-11T08:45:24.572Z,53.67
2019-05-11T08:47:48.736Z,54.18
2019-05-11T08:50:15.465Z,53.73
2019-05-11T08:52:41.496Z,54.53
2019-05-11T08:55:08.507Z,53.35
2019-05-11T08:57:34.514Z,54.06
2019-05-11T09:00:00.382Z,53.81
2019-05-11T09:02:27.820Z,53.05
2019-05-11T09:04:53.939Z,53.05
2019-05-11T09:07:19.800Z,52.88
2019-05-11T09:09:45.662Z,51.99
2019-05-11T09:12:11.525Z,52.82
2019-05-11T09:14:38.690Z,52.92
2019-05-11T09:17:04.717Z,52.98
2019-05-11T09:19:30.577Z,52.72
2019-05-11T09:21:58.704Z,51.63
2019-05-11T09:24:24.196Z,50.83
2019-05-11T09:26:50.068Z,51.49
2019-05-11T09:29:17.997Z,53.01
2019-05-11T09:31:44.509Z,52.06
2019-05-11T09:34:10.372Z,51.74
2019-05-11T09:36:38.525Z,51.26
2019-05-11T09:39:08.260Z,51.28
2019-05-11T09:41:33.951Z,50.78
2019-05-11T09:43:59.804Z,51.94
2019-05-11T09:46:27.751Z,52.18
2019-05-11T09:48:53.424Z,50.51
2019-05-11T09:51:19.303Z,49.90
2019-05-11T09:53:45.162Z,50.42
2019-05-11T09:56:11.031Z,49.78
2019-05-11T09:58:38.668Z,50.53
2019-05-11T10:01:04.670Z,50.92
2019-05-11T10:03:30.597Z,51.38
2019-05-11T10:05:57.954Z,50.65
2019-05-11T10:08:24.277Z,50.01
2019-05-11T10:10:52.476Z,51.28
2019-05-11T10:13:18.687Z,50.86
2019-05-11T10:15:59.297Z,49.19
2019-05-11T10:18:12.347Z,49.67
2019-05-11T10:20:39.217Z,49.21
2019-05-11T10:23:05.253Z,49.50
2019-05-11T10:25:31.133Z,49.33
2019-05-11T10:27:57.998Z,50.68
2019-05-11T10:30:23.957Z,50.07
2019-05-11T10:32:50.150Z,49.52
2019-05-11T10:35:18.172Z,51.17
2019-05-11T10:37:43.877Z,49.92
2019-05-11T10:40:12.075Z,48.77
2019-05-11T10:42:38.045Z,48.36
2019-05-11T10:45:05.565Z,49.30
2019-05-11T10:47:31.389Z,49.22
2019-05-11T10:49:57.896Z,49.86
2019-05-11T10:52:24.026Z,48.81
2019-05-11T10:54:49.938Z,48.82
2019-05-11T10:57:15.785Z,48.51
2019-05-11T10:59:41.741Z,49.98
2019-05-11T11:02:08.098Z,50.38
2019-05-11T11:04:34.308Z,49.18
2019-05-11T11:07:00.314Z,47.35
2019-05-11T11:09:28.162Z,48.54
2019-05-11T11:11:54.208Z,48.66
2019-05-11T11:14:20.077Z,48.75
2019-05-11T11:16:47.846Z,48.46
2019-05-11T11:19:13.682Z,48.36
2019-05-11T11:21:39.575Z,48.40
2019-05-11T11:24:07.500Z,46.39
2019-05-11T11:26:33.179Z,47.75
2019-05-11T11:28:59.050Z,45.52
2019-05-11T11:31:24.905Z,45.17
2019-05-11T11:33:50.750Z,44.94
2019-05-11T11:36:17.957Z,44.05
2019-05-11T11:38:43.970Z,45.84
2019-05-11T11:41:09.826Z,45.07
2019-05-11T11:43:37.640Z,45.66
2019-05-11T11:46:03.471Z,45.98
2019-05-11T11:48:29.353Z,45.81
2019-05-11T11:50:55.201Z,45.16
2019-05-11T11:53:21.069Z,43.70
2019-05-11T11:55:48.179Z,43.64
2019-05-11T11:58:14.169Z,44.71
2019-05-11T12:00:40.097Z,44.60
2019-05-11T12:03:08.009Z,44.03
2019-05-11T12:05:33.821Z,46.02
2019-05-11T12:07:59.698Z,46.44
2019-05-11T12:10:25.578Z,44.42
2019-05-11T12:12:51.433Z,44.42
2019-05-11T12:15:17.820Z,44.64
2019-05-11T12:17:43.748Z,46.17
2019-05-11T12:20:09.692Z,46.67
2019-05-11T12:22:35.579Z,45.64
2019-05-11T12:25:01.442Z,44.90
2019-05-11T12:27:28.692Z,44.50
2019-05-11T12:29:54.802Z,45.09
2019-05-11T12:32:23.422Z,45.09
2019-05-11T12:34:49.304Z,42.82
2019-05-11T12:37:15.239Z,42.72
2019-05-11T12:39:41.087Z,42.46
2019-05-11T12:42:08.593Z,45.54
2019-05-11T12:44:34.602Z,47.87
2019-05-11T12:47:00.469Z,47.28
2019-05-11T12:49:28.668Z,46.53
2019-05-11T12:51:54.173Z,45.49
2019-05-11T12:54:20.033Z,43.49
2019-05-11T12:56:45.888Z,43.08
2019-05-11T12:59:11.754Z,44.82
2019-05-11T13:01:38.098Z,46.43
2019-05-11T13:04:04.168Z,45.75
2019-05-11T13:06:30.043Z,46.22
2019-05-11T13:08:55.898Z,46.25
2019-05-11T13:11:21.757Z,45.06
2019-05-11T13:13:48.361Z,47.16
2019-05-11T13:16:14.585Z,46.80
2019-05-11T13:18:40.443Z,46.76
2019-05-11T13:21:07.713Z,45.35
2019-05-11T13:23:33.660Z,45.33
2019-05-11T13:25:59.529Z,44.40
2019-05-11T13:28:25.379Z,45.06
2019-05-11T13:30:51.246Z,44.79
2019-05-11T13:33:19.076Z,45.63
2019-05-11T13:35:45.006Z,45.54
2019-05-11T13:38:10.875Z,45.58
2019-05-11T13:40:38.178Z,44.89
2019-05-11T13:43:04.386Z,44.25
2019-05-11T13:45:30.943Z,44.29
2019-05-11T13:47:59.227Z,45.72
2019-05-11T13:50:24.405Z,45.73
2019-05-11T13:52:50.288Z,44.86
2019-05-11T13:55:17.891Z,42.77
2019-05-11T13:57:43.919Z,42.77
2019-05-11T14:00:10.185Z,42.61
2019-05-11T14:02:37.992Z,43.14
2019-05-11T14:05:06.108Z,42.64
2019-05-11T14:07:31.966Z,41.96
2019-05-11T14:09:58.893Z,42.12
2019-05-11T14:12:24.886Z,42.16
2019-05-11T14:14:50.746Z,41.37
2019-05-11T14:17:18.675Z,41.15
2019-05-11T14:19:44.400Z,40.88
2019-05-11T14:22:10.267Z,40.81
2019-05-11T14:24:37.607Z,40.82
2019-05-11T14:27:03.596Z,39.59
2019-05-11T14:29:29.461Z,40.30
2019-05-11T14:31:55.304Z,40.93
2019-05-11T14:34:21.677Z,40.63
2019-05-11T14:36:48.139Z,41.06
2019-05-11T14:39:13.985Z,40.45
2019-05-11T14:41:39.849Z,39.93
2019-05-11T14:44:05.789Z,40.06
2019-05-11T14:46:31.696Z,39.84
2019-05-11T14:48:58.547Z,39.62
2019-05-11T14:51:24.416Z,39.35
2019-05-11T14:53:50.299Z,38.98
2019-05-11T14:56:18.758Z,39.28
2019-05-11T14:58:43.906Z,40.00
2019-05-11T15:01:09.764Z,40.61
2019-05-11T15:03:37.861Z,41.38
2019-05-11T15:06:03.390Z,40.79
2019-05-11T15:08:29.249Z,39.95
2019-05-11T15:10:55.158Z,40.18
2019-05-11T15:13:21.054Z,39.61
2019-05-11T15:15:48.745Z,39.43
2019-05-11T15:18:14.657Z,39.89
2019-05-11T15:20:40.522Z,39.95
2019-05-11T15:23:08.619Z,40.22
2019-05-11T15:25:34.199Z,40.12
2019-05-11T15:28:00.054Z,40.08
2019-05-11T15:30:25.908Z,41.50
2019-05-11T15:32:51.759Z,42.45
2019-05-11T15:35:18.693Z,42.88
2019-05-11T15:37:44.888Z,43.75
2019-05-11T15:40:15.819Z,43.58
2019-05-11T15:42:42.024Z,43.28
2019-05-11T15:45:10.612Z,42.86
2019-05-11T15:47:37.734Z,42.84
2019-05-11T15:50:08.140Z,41.99
2019-05-11T15:52:33.741Z,41.59
2019-05-11T15:54:59.598Z,42.18
2019-05-11T15:57:25.484Z,42.07
2019-05-11T15:59:51.358Z,43.25
2019-05-11T16:02:17.977Z,42.05
2019-05-11T16:04:43.917Z,42.27
2019-05-11T16:07:09.792Z,42.37
2019-05-11T16:09:37.886Z,41.60
2019-05-11T16:12:03.427Z,41.79
2019-05-11T16:14:29.293Z,41.99
2019-05-11T16:16:55.204Z,42.09
2019-05-11T16:19:21.074Z,43.13
2019-05-11T16:21:46.939Z,41.86
2019-05-11T16:24:12.786Z,42.01
2019-05-11T16:26:38.990Z,42.40
2019-05-11T16:29:04.834Z,41.13
2019-05-11T16:31:30.704Z,40.79
2019-05-11T16:33:58.762Z,39.90
2019-05-11T16:36:24.348Z,39.78
2019-05-11T16:38:50.413Z,39.96
2019-05-11T16:41:17.897Z,40.65
2019-05-11T16:43:44.045Z,39.18
2019-05-11T16:46:09.897Z,40.77
2019-05-11T16:48:38.127Z,41.38
2019-05-11T16:51:03.529Z,42.62
2019-05-11T16:53:29.412Z,41.25
2019-05-11T16:55:57.595Z,41.09
2019-05-11T16:58:23.131Z,41.20
2019-05-11T17:00:49.324Z,41.68
2019-05-11T17:03:15.273Z,40.62
2019-05-11T17:05:41.146Z,39.32
2019-05-11T17:08:08.114Z,40.01
2019-05-11T17:10:34.071Z,40.72
2019-05-11T17:12:59.924Z,40.83
2019-05-11T17:15:25.780Z,42.03
2019-05-11T17:17:51.636Z,42.46
2019-05-11T17:20:18.742Z,43.40
2019-05-11T17:22:44.948Z,43.74
2019-05-11T17:25:10.806Z,43.59
2019-05-11T17:27:37.691Z,42.15
2019-05-11T17:30:08.637Z,42.42
2019-05-11T17:32:35.105Z,43.29
2019-05-11T17:35:01.183Z,44.23
2019-05-11T17:37:28.603Z,44.87
2019-05-11T17:39:54.708Z,44.88
2019-05-11T17:42:20.585Z,45.06
2019-05-11T17:44:48.411Z,45.46
2019-05-11T17:47:14.209Z,45.17
2019-05-11T17:49:40.091Z,45.22
2019-05-11T17:52:08.011Z,45.65
2019-05-11T17:54:33.692Z,45.47
2019-05-11T17:56:59.590Z,45.62
2019-05-11T17:59:27.886Z,45.73
2019-05-11T18:01:53.150Z,45.92
2019-05-11T18:04:19.015Z,46.33
2019-05-11T18:06:44.873Z,46.47
2019-05-11T18:09:10.734Z,46.38
2019-05-11T18:11:38.058Z,46.64
2019-05-11T18:14:04.391Z,47.33
2019-05-11T18:16:30.243Z,48.23
2019-05-11T18:18:58.335Z,48.35
2019-05-11T18:21:23.908Z,48.79
2019-05-11T18:23:49.773Z,48.99
2019-05-11T18:26:17.938Z,49.19
2019-05-11T18:28:43.409Z,49.14
2019-05-11T18:31:09.270Z,49.10
2019-05-11T18:33:35.166Z,48.89
2019-05-11T18:36:01.019Z,49.59
2019-05-11T18:38:27.625Z,49.96
2019-05-11T18:40:53.674Z,49.95
2019-05-11T18:43:19.541Z,49.71
2019-05-11T18:45:45.402Z,49.76
2019-05-11T18:48:11.295Z,50.05
2019-05-11T18:50:38.409Z,50.02
2019-05-11T18:53:04.517Z,50.19
2019-05-11T18:55:30.484Z,51.03
2019-05-11T18:57:58.079Z,50.91
2019-05-11T19:00:24.016Z,50.86
2019-05-11T19:02:50.098Z,50.69
2019-05-11T19:05:18.066Z,50.73
2019-05-11T19:07:43.806Z,51.07
2019-05-11T19:10:09.873Z,51.32
2019-05-11T19:12:37.699Z,51.52
2019-05-11T19:15:07.726Z,51.73
2019-05-11T19:17:33.757Z,51.55
2019-05-11T19:19:59.648Z,51.58
2019-05-11T19:22:25.537Z,51.72
2019-05-11T19:24:51.390Z,51.76
2019-05-11T19:27:18.567Z,51.99
2019-05-11T19:29:44.629Z,51.81
2019-05-11T19:32:11.149Z,51.45
2019-05-11T19:34:38.777Z,51.88
2019-05-11T19:37:04.846Z,51.88
2019-05-11T19:39:30.709Z,52.26
2019-05-11T19:41:58.098Z,52.10
2019-05-11T19:44:23.976Z,52.34
2019-05-11T19:46:49.843Z,52.30
2019-05-11T19:49:15.713Z,52.48
2019-05-11T19:51:42.516Z,52.57
2019-05-11T19:54:08.627Z,52.72
2019-05-11T19:56:34.578Z,53.11
2019-05-11T19:59:00.437Z,53.55
2019-05-11T20:01:27.928Z,53.58
2019-05-11T20:03:53.993Z,54.06
2019-05-11T20:06:19.854Z,54.05
2019-05-11T20:08:45.757Z,54.28
2019-05-11T20:11:11.617Z,54.28
2019-05-11T20:13:38.811Z,55.08
2019-05-11T20:16:04.890Z,54.66
2019-05-11T20:18:30.766Z,54.72
2019-05-11T20:20:56.730Z,55.11
2019-05-11T20:23:22.594Z,55.22
2019-05-11T20:25:48.602Z,55.36
2019-05-11T20:28:14.478Z,55.66
2019-05-11T20:30:40.344Z,55.73
2019-05-11T20:33:08.568Z,55.93
2019-05-11T20:35:34.033Z,55.96
2019-05-11T20:37:59.928Z,55.66
2019-05-11T20:40:25.801Z,55.86
2019-05-11T20:42:51.694Z,56.07
2019-05-11T20:45:18.524Z,56.35
2019-05-11T20:47:44.908Z,56.50
2019-05-11T20:50:10.913Z,56.57
2019-05-11T20:52:38.966Z,56.62
2019-05-11T20:55:05.436Z,56.81
2019-05-11T20:57:31.296Z,56.48
2019-05-11T20:59:57.573Z,56.21
2019-05-11T21:02:23.509Z,57.02
2019-05-11T21:04:49.399Z,56.89
2019-05-11T21:07:15.252Z,56.90
2019-05-11T21:09:41.129Z,57.31
2019-05-11T21:12:08.184Z,57.25
2019-05-11T21:14:34.134Z,57.58
2019-05-11T21:17:00.021Z,57.21
2019-05-11T21:19:28.169Z,56.94
2019-05-11T21:21:54.033Z,57.04
2019-05-11T21:24:19.998Z,57.29
2019-05-11T21:26:47.883Z,57.60
2019-05-11T21:29:13.604Z,57.45
2019-05-11T21:31:40.756Z,57.66
2019-05-11T21:34:08.204Z,58.04
2019-05-11T21:36:34.181Z,58.27
2019-05-11T21:39:00.047Z,58.50
2019-05-11T21:41:28.223Z,58.75
2019-05-11T21:43:53.667Z,58.99
2019-05-11T21:46:19.574Z,59.24
2019-05-11T21:48:47.668Z,59.54
2019-05-11T21:51:13.186Z,59.12
2019-05-11T21:53:39.219Z,59.49
2019-05-11T21:56:05.080Z,60.18
2019-05-11T21:58:30.938Z,60.24
2019-05-11T22:00:56.991Z,59.96
2019-05-11T22:03:22.851Z,59.41
2019-05-11T22:05:48.714Z,60.18
2019-05-11T22:08:14.592Z,59.93
2019-05-11T22:10:40.441Z,60.01
2019-05-11T22:13:06.322Z,59.82
2019-05-11T22:15:32.170Z,60.18
2019-05-11T22:17:58.531Z,60.54
2019-05-11T22:20:24.602Z,60.72
2019-05-11T22:22:50.462Z,61.13
2019-05-11T22:25:18.378Z,60.65
2019-05-11T22:27:44.069Z,61.03
2019-05-11T22:30:10.529Z,61.34
2019-05-11T22:32:38.372Z,61.87
2019-05-11T22:35:08.267Z,61.83
2019-05-11T22:37:34.104Z,61.90
2019-05-11T22:39:59.977Z,62.00
2019-05-11T22:42:28.029Z,61.79
2019-05-11T22:44:53.595Z,61.63
2019-05-11T22:47:19.485Z,61.72
2019-05-11T22:49:45.323Z,62.47
2019-05-11T22:52:11.182Z,62.41
2019-05-11T22:54:38.315Z,61.51
2019-05-11T22:57:04.380Z,62.10
2019-05-11T22:59:30.235Z,63.18
2019-05-11T23:01:56.084Z,62.77
2019-05-11T23:04:21.943Z,63.25
2019-05-11T23:06:47.853Z,63.20
2019-05-11T23:09:13.643Z,63.74
2019-05-11T23:11:39.517Z,63.44
2019-05-11T23:14:05.396Z,64.02
2019-05-11T23:16:31.213Z,63.08
2019-05-11T23:18:57.320Z,62.33
2019-05-11T23:21:23.169Z,62.19
2019-05-11T23:23:49.026Z,62.72
2019-05-11T23:26:14.878Z,62.44
2019-05-11T23:28:40.730Z,62.93
2019-05-11T23:31:08.901Z,64.33
2019-05-11T23:33:34.393Z,63.71
2019-05-11T23:36:00.300Z,63.01
2019-05-11T23:38:28.134Z,63.33
2019-05-11T23:40:53.922Z,63.12
2019-05-11T23:43:19.881Z,63.34
2019-05-11T23:45:45.793Z,63.66
2019-05-11T23:48:11.646Z,64.43
2019-05-11T23:50:38.867Z,64.53
2019-05-11T23:53:06.826Z,64.39
2019-05-11T23:55:32.658Z,64.30
2019-05-11T23:57:58.506Z,64.98
